Time;durP1;ratioP1;P1;durP2;ratioP2;P2;SDS_P1;SDS_P2;PMS_P1;PMS_P2;Temp;Humidity;BMP_temperature;BMP_pressure;BME280_temperature;BME280_humidity;BME280_pressure;Samples;Min_cycle;Max_cycle;Signal;HPM_P1;HPM_P2
2023/11/08 00:00:52;;;;;;;8.60;3.77;;;;;;;12.87;100.00;101426.28;2609025;22;20553;-68
2023/11/08 00:01:55;;;;;;;9.77;3.87;;;;;;;12.86;100.00;101438.63;2609135;22;20403;-68
2023/11/08 00:02:56;;;;;;;5.67;3.77;;;;;;;12.88;100.00;101449.31;2608972;22;20243;-69
2023/11/08 00:03:56;;;;;;;5.17;3.60;;;;;;;12.85;100.00;101425.94;2608891;22;20465;-69
2023/11/08 00:04:57;;;;;;;10.47;4.47;;;;;;;12.74;100.00;101407.88;2609016;22;20217;-68
2023/11/08 00:05:57;;;;;;;7.63;4.67;;;;;;;12.69;100.00;101422.28;2608997;22;20146;-69
2023/11/08 00:06:57;;;;;;;7.80;3.87;;;;;;;12.69;100.00;101419.50;2608902;22;20146;-68
2023/11/08 00:07:58;;;;;;;7.33;4.20;;;;;;;12.62;100.00;101408.53;2595381;22;20147;-69
2023/11/08 00:08:59;;;;;;;10.33;4.10;;;;;;;12.72;100.00;101419.44;2595441;22;20225;-69
2023/11/08 00:09:59;;;;;;;12.47;7.90;;;;;;;12.77;100.00;101421.75;2608934;22;20167;-69
2023/11/08 00:11:00;;;;;;;15.37;8.90;;;;;;;12.79;100.00;101412.94;2609005;22;20230;-69
2023/11/08 00:12:00;;;;;;;13.67;8.70;;;;;;;12.67;100.00;101394.91;2608933;22;20150;-70
2023/11/08 00:13:01;;;;;;;12.60;7.40;;;;;;;12.09;100.00;101328.16;2608939;22;20224;-69
2023/11/08 00:14:03;;;;;;;11.33;7.77;;;;;;;12.61;100.00;101398.63;2608980;22;20139;-69
2023/11/08 00:15:07;;;;;;;9.40;6.57;;;;;;;11.95;100.00;101295.84;2609027;22;20151;-69
2023/11/08 00:16:08;;;;;;;9.87;6.30;;;;;;;12.71;100.00;101406.72;2609047;22;20476;-68
2023/11/08 00:17:09;;;;;;;11.73;6.57;;;;;;;12.71;100.00;101401.16;2609067;22;20369;-68
2023/11/08 00:18:09;;;;;;;10.07;6.23;;;;;;;12.65;100.00;101407.69;2608965;22;20593;-69
2023/11/08 00:19:09;;;;;;;11.43;5.77;;;;;;;12.65;100.00;101402.88;2595288;22;20163;-69
2023/11/08 00:20:11;;;;;;;10.40;6.27;;;;;;;12.67;100.00;101397.69;2595400;22;20616;-69
2023/11/08 00:21:11;;;;;;;10.03;6.43;;;;;;;12.76;100.00;101413.81;2608959;22;20585;-69
2023/11/08 00:22:12;;;;;;;8.20;6.30;;;;;;;12.79;100.00;101405.41;2608935;22;20705;-69
2023/11/08 00:23:12;;;;;;;12.30;6.30;;;;;;;12.79;100.00;101412.94;2609022;22;20207;-68
2023/11/08 00:24:13;;;;;;;9.07;6.03;;;;;;;12.76;100.00;101405.47;2608769;22;20174;-68
2023/11/08 00:25:13;;;;;;;9.87;6.13;;;;;;;12.71;100.00;101401.16;2608830;22;20635;-69
2023/11/08 00:26:13;;;;;;;12.97;6.70;;;;;;;12.66;100.00;101396.09;2609061;22;20150;-69
2023/11/08 00:27:14;;;;;;;13.83;6.57;;;;;;;12.60;100.00;101408.19;2609000;22;20176;-69
2023/11/08 00:28:14;;;;;;;10.47;6.57;;;;;;;12.64;100.00;101403.31;2608936;22;20552;-69
2023/11/08 00:29:15;;;;;;;9.20;6.17;;;;;;;12.66;100.00;101398.13;2608931;22;20276;-69
2023/11/08 00:30:15;;;;;;;17.93;5.50;;;;;;;12.65;100.00;101394.53;2608951;22;20626;-68
2023/11/08 00:31:16;;;;;;;11.47;5.47;;;;;;;12.22;100.00;101313.22;2608906;22;20161;-68
2023/11/08 00:32:21;;;;;;;10.53;4.77;;;;;;;12.76;100.00;101395.09;2609048;22;20150;-68
2023/11/08 00:33:21;;;;;;;8.33;3.90;;;;;;;12.82;100.00;101387.06;2608874;22;20596;-68
2023/11/08 00:34:22;;;;;;;8.13;4.07;;;;;;;12.83;100.00;101391.41;2608900;22;20696;-69
2023/11/08 00:35:23;;;;;;;7.77;4.63;;;;;;;12.83;100.00;101386.63;2608906;22;20146;-69
2023/11/08 00:36:23;;;;;;;8.33;4.43;;;;;;;12.83;100.00;101386.63;2608901;22;20682;-68
2023/11/08 00:37:24;;;;;;;8.37;5.13;;;;;;;12.82;100.00;101396.16;2608737;22;20546;-69
2023/11/08 00:38:25;;;;;;;8.33;5.23;;;;;;;12.79;100.00;101369.22;2609040;22;20170;-68
2023/11/08 00:39:25;;;;;;;8.27;4.37;;;;;;;12.84;100.00;101374.28;2608978;22;20377;-68
2023/11/08 00:40:26;;;;;;;9.20;4.00;;;;;;;12.87;100.00;101376.19;2608857;22;20181;-69
2023/11/08 00:41:27;;;;;;;6.97;3.43;;;;;;;12.83;100.00;101366.38;2608836;22;20150;-69
2023/11/08 00:42:28;;;;;;;10.73;3.67;;;;;;;12.87;100.00;101365.06;2608956;22;20146;-68
2023/11/08 00:43:29;;;;;;;9.10;4.63;;;;;;;12.90;100.00;101369.78;2608947;22;20861;-69
2023/11/08 00:44:29;;;;;;;8.37;4.97;;;;;;;12.90;100.00;101361.44;2608592;22;20249;-69
2023/11/08 00:45:30;;;;;;;9.30;5.23;;;;;;;12.97;100.00;101355.75;2608648;22;20153;-69
2023/11/08 00:46:30;;;;;;;7.53;5.00;;;;;;;12.99;100.00;101352.53;2608798;22;20157;-69
2023/11/08 00:47:32;;;;;;;7.00;3.33;;;;;;;12.58;100.00;101274.34;2595252;22;20207;-69
2023/11/08 00:48:33;;;;;;;7.83;3.60;;;;;;;12.58;100.00;101277.91;2595401;22;20154;-70
2023/11/08 00:49:33;;;;;;;11.73;4.20;;;;;;;13.05;100.00;101343.25;2608853;22;20385;-69
2023/11/08 00:50:34;;;;;;;10.17;4.30;;;;;;;12.98;100.00;101323.94;2609055;22;20445;-68
2023/11/08 00:51:35;;;;;;;7.97;4.37;;;;;;;12.92;100.00;101322.84;2608764;22;20150;-69
2023/11/08 00:52:36;;;;;;;8.57;3.77;;;;;;;12.99;100.00;101330.28;2608863;22;20260;-68
2023/11/08 00:53:38;;;;;;;5.50;3.60;;;;;;;13.03;100.00;101330.97;2608908;22;20605;-68
2023/11/08 00:54:39;;;;;;;9.93;3.97;;;;;;;13.08;100.00;101336.84;2608991;22;20456;-69
2023/11/08 00:55:40;;;;;;;10.10;4.03;;;;;;;13.08;100.00;101338.81;2608793;22;20428;-69
2023/11/08 00:56:40;;;;;;;6.43;3.80;;;;;;;13.10;100.00;101350.28;2608809;22;20153;-69
2023/11/08 00:57:41;;;;;;;7.97;4.00;;;;;;;13.11;100.00;101355.44;2608807;22;20148;-68
2023/11/08 00:58:41;;;;;;;8.40;3.90;;;;;;;13.10;100.00;101344.72;2608765;22;20548;-68
2023/11/08 00:59:42;;;;;;;6.93;3.10;;;;;;;12.86;100.00;101310.66;2608769;22;20602;-69
2023/11/08 01:00:42;;;;;;;5.33;3.00;;;;;;;12.92;100.00;101339.53;2608814;22;20228;-69
2023/11/08 01:01:43;;;;;;;8.33;4.00;;;;;;;12.95;100.00;101352.59;2608777;22;20232;-69
2023/11/08 01:02:44;;;;;;;6.70;3.57;;;;;;;12.97;100.00;101352.97;2608827;22;20149;-68
2023/11/08 01:03:45;;;;;;;8.43;3.90;;;;;;;13.01;100.00;101350.88;2608689;22;20232;-68
2023/11/08 01:04:45;;;;;;;9.53;3.67;;;;;;;12.92;100.00;101328.41;2608747;22;20381;-68
2023/11/08 01:05:46;;;;;;;5.73;3.00;;;;;;;12.84;100.00;101329.00;2608687;22;20519;-68
2023/11/08 01:06:46;;;;;;;5.30;3.17;;;;;;;12.85;100.00;101325.78;2609034;22;20159;-69
2023/11/08 01:07:47;;;;;;;7.53;3.53;;;;;;;12.89;100.00;101320.13;2608733;22;20150;-68
2023/11/08 01:08:47;;;;;;;4.80;3.30;;;;;;;12.89;100.00;101309.00;2608649;22;20530;-68
2023/11/08 01:09:48;;;;;;;6.93;3.60;;;;;;;12.99;100.00;101316.38;2608739;22;20148;-68
2023/11/08 01:10:49;;;;;;;8.73;3.77;;;;;;;13.01;100.00;101311.16;2608752;22;20208;-69
2023/11/08 01:11:49;;;;;;;6.07;3.13;;;;;;;12.93;100.00;101302.16;2608821;22;20610;-68
2023/11/08 01:12:50;;;;;;;5.37;3.10;;;;;;;12.78;100.00;101283.44;2608739;22;20763;-68
2023/11/08 01:13:51;;;;;;;5.43;3.30;;;;;;;12.86;100.00;101301.53;2608741;22;20160;-68
2023/11/08 01:14:52;;;;;;;9.93;3.50;;;;;;;12.88;100.00;101304.66;2608870;22;20661;-68
2023/11/08 01:15:53;;;;;;;7.10;3.47;;;;;;;12.92;100.00;101294.25;2608883;22;20759;-68
2023/11/08 01:16:54;;;;;;;6.67;3.40;;;;;;;12.89;100.00;101278.41;2608711;22;20253;-68
2023/11/08 01:17:55;;;;;;;5.17;3.30;;;;;;;12.86;100.00;101273.72;2608744;22;20371;-68
2023/11/08 01:18:56;;;;;;;6.43;3.73;;;;;;;12.85;100.00;101294.38;2608708;22;20149;-68
2023/11/08 01:19:56;;;;;;;4.90;3.30;;;;;;;12.89;100.00;101298.69;2608781;22;20379;-68
2023/11/08 01:20:57;;;;;;;7.10;3.40;;;;;;;12.75;100.00;101270.41;2608711;22;20175;-68
2023/11/08 01:21:57;;;;;;;5.90;3.47;;;;;;;12.90;100.00;101288.31;2608841;22;20148;-68
2023/11/08 01:22:58;;;;;;;10.40;3.80;;;;;;;12.67;100.00;101289.25;2608694;22;20172;-69
2023/11/08 01:24:00;;;;;;;5.63;3.30;;;;;;;12.66;100.00;101273.00;2608619;22;20558;-68
2023/11/08 01:25:00;;;;;;;5.67;3.33;;;;;;;12.75;100.00;101285.06;2608425;22;20555;-68
2023/11/08 01:26:02;;;;;;;5.93;3.33;;;;;;;12.82;100.00;101284.91;2608893;22;20391;-68
2023/11/08 01:27:03;;;;;;;14.93;4.50;;;;;;;12.84;100.00;101279.72;2608746;22;20590;-68
2023/11/08 01:28:04;;;;;;;7.40;3.47;;;;;;;12.75;100.00;101270.41;2608703;22;20385;-69
2023/11/08 01:29:04;;;;;;;8.17;3.70;;;;;;;12.70;100.00;101279.25;2608716;22;20374;-69
2023/11/08 01:30:07;;;;;;;10.80;3.57;;;;;;;12.71;100.00;101287.16;2608908;22;20144;-68
2023/11/08 01:31:08;;;;;;;9.20;3.90;;;;;;;12.80;100.00;101283.81;2608654;22;20143;-68
2023/11/08 01:32:08;;;;;;;10.63;3.97;;;;;;;12.87;100.00;101275.28;2608678;22;20856;-68
2023/11/08 01:33:09;;;;;;;6.60;3.83;;;;;;;12.87;100.00;101273.28;2608672;22;20708;-69
2023/11/08 01:34:11;;;;;;;7.17;3.17;;;;;;;12.83;100.00;101278.16;2608760;22;20142;-68
2023/11/08 01:35:12;;;;;;;7.87;3.80;;;;;;;12.90;100.00;101275.19;2608691;22;20161;-69
2023/11/08 01:36:12;;;;;;;7.20;3.43;;;;;;;12.96;100.00;101270.72;2608784;22;20385;-68
2023/11/08 01:37:13;;;;;;;8.27;3.80;;;;;;;12.27;100.00;101145.19;2608800;22;20259;-68
2023/11/08 01:38:13;;;;;;;6.60;3.73;;;;;;;13.06;100.00;101260.56;2608657;22;20232;-68
2023/11/08 01:39:14;;;;;;;7.60;3.50;;;;;;;13.10;100.00;101255.69;2608666;22;20213;-68
2023/11/08 01:40:14;;;;;;;7.77;3.87;;;;;;;13.11;100.00;101252.47;2608743;22;20187;-68
2023/11/08 01:41:15;;;;;;;7.17;3.63;;;;;;;13.15;100.00;101258.75;2608691;22;20153;-69
2023/11/08 01:42:18;;;;;;;6.70;3.53;;;;;;;13.22;100.00;101263.34;2608770;22;20152;-69
2023/11/08 01:43:30;;;;;;;8.00;3.83;;;;;;;13.22;100.00;101260.56;2608646;22;20148;-68
2023/11/08 01:44:30;;;;;;;8.00;3.53;;;;;;;13.21;100.00;101251.44;2608672;22;20895;-68
2023/11/08 01:45:31;;;;;;;9.57;3.87;;;;;;;13.18;100.00;101245.97;2608636;22;20784;-68
2023/11/08 01:46:31;;;;;;;7.23;3.40;;;;;;;13.20;100.00;101266.56;2608618;22;20153;-68
2023/11/08 01:47:35;;;;;;;8.43;3.90;;;;;;;13.27;100.00;101260.81;2608570;22;20634;-68
2023/11/08 01:48:35;;;;;;;6.67;3.50;;;;;;;13.27;100.00;101268.41;2608662;22;20150;-68
2023/11/08 01:49:36;;;;;;;6.83;3.60;;;;;;;13.29;100.00;101263.97;2595023;22;20413;-68
2023/11/08 01:50:36;;;;;;;9.40;3.50;;;;;;;13.29;100.00;101269.53;2595280;22;20158;-68
2023/11/08 01:51:37;;;;;;;5.97;3.50;;;;;;;13.32;100.00;101277.00;2608867;22;20192;-69
2023/11/08 01:52:38;;;;;;;8.83;3.47;;;;;;;13.34;100.00;101268.22;2608672;22;20158;-68
2023/11/08 01:53:40;;;;;;;8.13;3.70;;;;;;;13.31;100.00;101274.66;2608639;22;20146;-68
2023/11/08 01:54:48;;;;;;;8.13;2.97;;;;;;;12.59;100.00;101162.69;2608915;22;20149;-68
2023/11/08 01:55:49;;;;;;;6.57;3.30;;;;;;;13.19;100.00;101267.00;2608662;22;20364;-69
2023/11/08 01:56:50;;;;;;;7.13;3.90;;;;;;;13.19;100.00;101269.78;2609666;22;20460;-69
2023/11/08 01:57:51;;;;;;;5.33;3.07;;;;;;;13.01;100.00;101244.41;2609580;22;20153;-68
2023/11/08 01:58:54;;;;;;;6.40;3.63;;;;;;;13.14;100.00;101261.94;2609524;22;20612;-68
2023/11/08 01:59:57;;;;;;;8.93;3.87;;;;;;;13.09;100.00;101265.25;2609405;22;20376;-69
2023/11/08 02:01:00;;;;;;;13.30;4.53;;;;;;;12.71;100.00;101222.44;2609642;22;20405;-69
2023/11/08 02:02:01;;;;;;;11.93;3.80;;;;;;;12.30;100.00;101188.81;2609522;22;20372;-69
2023/11/08 02:03:03;;;;;;;7.43;3.63;;;;;;;12.90;100.00;101266.06;2609593;22;20380;-68
2023/11/08 02:04:03;;;;;;;5.53;3.50;;;;;;;12.89;100.00;101278.41;2595760;22;20207;-68
2023/11/08 02:05:06;;;;;;;5.50;3.47;;;;;;;12.86;100.00;101280.06;2596094;22;20435;-69
2023/11/08 02:06:08;;;;;;;8.03;4.20;;;;;;;12.76;100.00;101258.06;2609791;22;20611;-69
2023/11/08 02:07:08;;;;;;;6.63;3.47;;;;;;;12.87;100.00;101273.28;2609464;22;20930;-68
2023/11/08 02:08:10;;;;;;;4.53;3.30;;;;;;;12.81;100.00;101290.94;2609419;22;20694;-69
2023/11/08 02:09:11;;;;;;;9.70;3.80;;;;;;;12.74;100.00;101299.41;2609539;22;20146;-68
2023/11/08 02:10:12;;;;;;;5.97;4.20;;;;;;;11.67;100.00;101151.22;2609453;22;20387;-68
2023/11/08 02:11:12;;;;;;;6.80;3.90;;;;;;;12.51;100.00;101321.78;2609521;22;20390;-68
2023/11/08 02:12:13;;;;;;;6.37;3.73;;;;;;;12.41;100.00;101325.53;2609781;22;20255;-69
2023/11/08 02:13:13;;;;;;;10.07;3.73;;;;;;;12.28;100.00;101333.75;2609443;22;20150;-69
2023/11/08 02:14:14;;;;;;;7.43;3.60;;;;;;;12.28;100.00;101336.50;2609460;22;20152;-69
2023/11/08 02:15:15;;;;;;;7.40;3.80;;;;;;;12.16;100.00;101341.91;2609422;22;20149;-68
2023/11/08 02:16:15;;;;;;;6.27;3.70;;;;;;;12.07;100.00;101344.47;2609510;22;20146;-68
2023/11/08 02:17:16;;;;;;;5.83;3.77;;;;;;;12.03;100.00;101338.97;2609407;22;20415;-69
2023/11/08 02:18:17;;;;;;;6.17;3.57;;;;;;;11.95;100.00;101334.75;2609442;22;20157;-68
2023/11/08 02:19:17;;;;;;;6.97;3.80;;;;;;;11.92;100.00;101330.06;2609456;22;20172;-68
2023/11/08 02:20:18;;;;;;;5.97;3.40;;;;;;;11.84;100.00;101336.16;2609765;22;20154;-68
2023/11/08 02:21:18;;;;;;;8.00;3.97;;;;;;;11.80;100.00;101341.00;2609436;22;20147;-68
2023/11/08 02:22:20;;;;;;;6.00;3.57;;;;;;;10.93;100.00;101233.00;2609402;22;20174;-68
2023/11/08 02:23:20;;;;;;;7.70;4.20;;;;;;;11.54;100.00;101358.47;2609694;22;20153;-68
2023/11/08 02:24:21;;;;;;;7.50;4.20;;;;;;;10.73;100.00;101247.97;2609323;22;20434;-68
2023/11/08 02:25:23;;;;;;;6.77;4.27;;;;;;;11.37;100.00;101368.63;2609261;22;20687;-68
2023/11/08 02:26:24;;;;;;;7.83;4.07;;;;;;;11.36;100.00;101385.69;2609344;22;20400;-68
2023/11/08 02:27:24;;;;;;;6.00;3.90;;;;;;;11.32;100.00;101398.84;2609507;22;20372;-68
2023/11/08 02:28:25;;;;;;;8.10;4.40;;;;;;;10.95;100.00;101346.25;2609539;22;20154;-68
2023/11/08 02:29:26;;;;;;;9.07;4.33;;;;;;;11.29;100.00;101405.22;2609372;22;20146;-68
2023/11/08 02:30:26;;;;;;;6.90;4.13;;;;;;;11.29;100.00;101411.56;2609471;22;20160;-68
2023/11/08 02:31:27;;;;;;;7.57;3.80;;;;;;;11.30;100.00;101420.66;2609527;22;20375;-68
2023/11/08 02:32:27;;;;;;;8.63;4.20;;;;;;;10.83;100.00;101338.50;2609386;22;20173;-68
2023/11/08 02:33:28;;;;;;;6.27;3.43;;;;;;;10.60;100.00;101305.94;2609476;22;20221;-67
2023/11/08 02:34:29;;;;;;;6.90;3.90;;;;;;;10.56;100.00;101309.97;2609378;22;20148;-68
2023/11/08 02:35:30;;;;;;;8.53;4.00;;;;;;;11.31;100.00;101416.69;2609374;22;20434;-68
2023/11/08 02:36:31;;;;;;;9.27;4.87;;;;;;;10.95;100.00;101363.69;2609509;22;20150;-67
2023/11/08 02:37:32;;;;;;;7.90;4.60;;;;;;;10.48;100.00;101278.81;2609465;22;20368;-68
2023/11/08 02:38:32;;;;;;;7.07;4.83;;;;;;;11.38;100.00;101417.38;2609376;22;20369;-67
2023/11/08 02:39:32;;;;;;;7.07;4.27;;;;;;;11.44;100.00;101434.34;2609264;22;20229;-67
2023/11/08 02:40:33;;;;;;;10.60;4.57;;;;;;;11.42;100.00;101434.00;2609650;22;20569;-67
2023/11/08 02:41:35;;;;;;;7.37;4.83;;;;;;;11.39;100.00;101445.91;2609532;22;20146;-67
2023/11/08 02:42:41;;;;;;;7.80;4.30;;;;;;;11.37;100.00;101457.44;2609465;22;20154;-67
2023/11/08 02:43:43;;;;;;;8.03;4.60;;;;;;;11.44;100.00;101457.34;2609363;22;20697;-66
2023/11/08 02:44:44;;;;;;;7.00;4.67;;;;;;;11.49;100.00;101467.19;2609254;22;20451;-68
2023/11/08 02:45:44;;;;;;;10.07;5.20;;;;;;;11.39;100.00;101435.63;2609494;22;20376;-66
2023/11/08 02:46:45;;;;;;;7.57;5.33;;;;;;;11.42;100.00;101440.31;2609380;22;20226;-68
2023/11/08 02:47:47;;;;;;;9.20;5.00;;;;;;;11.62;100.00;101462.66;2595683;22;20190;-67
2023/11/08 02:48:48;;;;;;;13.80;6.07;;;;;;;11.69;100.00;101476.44;2595873;22;20151;-67
2023/11/08 02:49:49;;;;;;;8.83;5.17;;;;;;;11.66;100.00;101458.63;2609276;22;20384;-67
2023/11/08 02:50:51;;;;;;;8.77;5.23;;;;;;;11.67;100.00;101462.19;2609299;22;20456;-67
2023/11/08 02:51:52;;;;;;;10.47;5.40;;;;;;;11.79;100.00;101492.16;2609346;22;20146;-67
2023/11/08 02:52:52;;;;;;;9.87;5.27;;;;;;;11.81;100.00;101507.19;2609268;22;20369;-67
2023/11/08 02:53:53;;;;;;;7.83;5.10;;;;;;;11.84;100.00;101500.78;2609303;22;20170;-67
2023/11/08 02:54:54;;;;;;;15.00;5.80;;;;;;;11.89;100.00;101510.66;2609317;22;20170;-68
2023/11/08 02:55:54;;;;;;;9.37;6.20;;;;;;;11.86;100.00;101505.94;2609348;22;20866;-67
2023/11/08 02:56:55;;;;;;;11.20;5.50;;;;;;;11.98;100.00;101524.78;2609483;22;20203;-67
2023/11/08 02:57:55;;;;;;;13.27;6.00;;;;;;;11.92;100.00;101507.03;2609290;22;20171;-67
2023/11/08 02:58:56;;;;;;;9.73;5.37;;;;;;;12.02;100.00;101523.53;2609311;22;20212;-67
2023/11/08 02:59:57;;;;;;;10.27;5.43;;;;;;;12.07;100.00;101525.06;2609323;22;20153;-67
2023/11/08 03:00:57;;;;;;;9.87;5.33;;;;;;;12.13;100.00;101538.06;2609362;22;20376;-67
2023/11/08 03:01:59;;;;;;;12.93;5.90;;;;;;;12.16;100.00;101544.75;2609261;22;20469;-67
2023/11/08 03:03:00;;;;;;;14.27;6.23;;;;;;;11.79;100.00;101484.59;2609259;22;20504;-68
2023/11/08 03:04:01;;;;;;;8.23;5.70;;;;;;;12.21;100.00;101539.53;2609274;22;20369;-67
2023/11/08 03:05:02;;;;;;;9.40;5.50;;;;;;;12.22;100.00;101535.53;2609238;22;20376;-69
2023/11/08 03:06:03;;;;;;;11.77;5.83;;;;;;;12.24;100.00;101537.91;2609385;22;20593;-68
2023/11/08 03:07:04;;;;;;;11.57;6.10;;;;;;;12.25;100.00;101547.78;2609293;22;20397;-67
2023/11/08 03:08:05;;;;;;;11.17;6.53;;;;;;;12.28;100.00;101539.41;2608880;22;20376;-67
2023/11/08 03:09:06;;;;;;;16.03;7.07;;;;;;;12.23;100.00;101522.41;2609254;22;20400;-67
2023/11/08 03:10:08;;;;;;;11.70;5.60;;;;;;;12.25;100.00;101520.00;2609063;22;20156;-67
2023/11/08 03:11:08;;;;;;;10.23;5.73;;;;;;;11.93;100.00;101469.72;2609249;22;20836;-67
2023/11/08 03:12:09;;;;;;;10.63;6.03;;;;;;;12.09;100.00;101492.09;2609202;22;20369;-68
2023/11/08 03:13:10;;;;;;;15.17;6.33;;;;;;;12.38;100.00;101526.53;2609471;22;20149;-67
2023/11/08 03:14:10;;;;;;;10.07;6.10;;;;;;;12.41;100.00;101525.69;2609137;22;20167;-67
2023/11/08 03:15:11;;;;;;;11.27;6.70;;;;;;;11.67;100.00;101401.91;2609140;22;20608;-67
2023/11/08 03:16:12;;;;;;;13.10;7.40;;;;;;;12.40;100.00;101513.00;2609061;22;20656;-67
2023/11/08 03:17:12;;;;;;;12.43;6.73;;;;;;;12.45;100.00;101513.28;2609371;22;20786;-67
2023/11/08 03:18:13;;;;;;;16.50;6.47;;;;;;;12.51;100.00;101511.59;2609170;22;20143;-67
2023/11/08 03:19:13;;;;;;;14.57;6.97;;;;;;;12.52;100.00;101518.75;2609205;22;20263;-67
2023/11/08 03:20:17;;;;;;;10.57;6.23;;;;;;;12.57;100.00;101515.47;2609085;22;20180;-67
2023/11/08 03:21:17;;;;;;;11.87;6.70;;;;;;;12.54;100.00;101515.50;2609202;22;20155;-67
2023/11/08 03:22:18;;;;;;;15.63;6.70;;;;;;;12.54;100.00;101507.19;2609030;22;20418;-67
2023/11/08 03:23:18;;;;;;;12.97;6.20;;;;;;;12.72;100.00;101511.22;2609260;22;20235;-68
2023/11/08 03:24:19;;;;;;;8.90;6.30;;;;;;;12.79;100.00;101510.28;2609071;22;20596;-67
2023/11/08 03:25:19;;;;;;;10.73;5.77;;;;;;;12.70;100.00;101488.59;2609054;22;20194;-67
2023/11/08 03:26:20;;;;;;;13.17;6.13;;;;;;;12.34;100.00;101425.75;2609248;22;20146;-68
2023/11/08 03:27:22;;;;;;;9.33;5.40;;;;;;;12.91;100.00;101502.09;2609096;22;20501;-69
2023/11/08 03:28:22;;;;;;;9.57;5.63;;;;;;;12.82;100.00;101484.41;2609164;22;20377;-67
2023/11/08 03:29:23;;;;;;;10.17;6.23;;;;;;;12.88;100.00;101500.19;2609157;22;20377;-67
2023/11/08 03:30:23;;;;;;;10.00;5.80;;;;;;;12.94;100.00;101503.25;2609083;22;20483;-67
2023/11/08 03:31:24;;;;;;;15.97;6.83;;;;;;;12.79;100.00;101505.53;2609021;22;20147;-67
2023/11/08 03:32:27;;;;;;;13.73;6.90;;;;;;;12.93;100.00;101510.81;2609118;22;20148;-68
2023/11/08 03:33:28;;;;;;;11.77;5.93;;;;;;;12.91;100.00;101507.66;2609176;22;20653;-67
2023/11/08 03:34:28;;;;;;;12.20;6.50;;;;;;;12.95;100.00;101511.16;2608985;22;20770;-67
2023/11/08 03:35:29;;;;;;;13.20;6.03;;;;;;;12.96;100.00;101509.97;2609101;22;20153;-67
2023/11/08 03:36:30;;;;;;;9.43;5.23;;;;;;;12.34;100.00;101417.41;2609129;22;20496;-67
2023/11/08 03:37:35;;;;;;;10.70;5.77;;;;;;;12.89;100.00;101512.88;2609032;22;20592;-67
2023/11/08 03:38:35;;;;;;;16.70;6.03;;;;;;;12.88;100.00;101511.31;2609196;22;20392;-67
2023/11/08 03:39:36;;;;;;;14.70;6.00;;;;;;;13.00;100.00;101505.13;2608972;22;20463;-67
2023/11/08 03:40:36;;;;;;;13.67;5.50;;;;;;;13.02;100.00;101510.28;2609067;22;20155;-68
2023/11/08 03:41:37;;;;;;;10.77;5.40;;;;;;;13.06;100.00;101520.13;2609010;22;20147;-67
2023/11/08 03:42:42;;;;;;;10.13;5.37;;;;;;;13.08;100.00;101528.03;2609023;22;20176;-68
2023/11/08 03:43:42;;;;;;;8.77;5.43;;;;;;;13.13;100.00;101520.00;2609063;22;20622;-67
2023/11/08 03:44:43;;;;;;;13.47;5.27;;;;;;;13.17;100.00;101523.47;2608845;22;20773;-68
2023/11/08 03:45:43;;;;;;;8.37;5.40;;;;;;;13.17;100.00;101523.47;2609053;22;20157;-68
2023/11/08 03:46:44;;;;;;;11.13;5.57;;;;;;;13.22;100.00;101525.75;2608997;22;20151;-68
2023/11/08 03:47:44;;;;;;;7.10;4.87;;;;;;;13.21;100.00;101520.66;2609004;22;20151;-67
2023/11/08 03:48:46;;;;;;;10.13;5.47;;;;;;;13.25;100.00;101521.34;2608951;22;20150;-67
2023/11/08 03:49:47;;;;;;;10.17;5.63;;;;;;;13.28;100.00;101521.25;2608979;22;20233;-67
2023/11/08 03:50:47;;;;;;;10.50;6.10;;;;;;;13.33;100.00;101517.19;2608923;22;20373;-67
2023/11/08 03:51:48;;;;;;;10.13;5.10;;;;;;;13.46;100.00;101520.88;2608833;22;20154;-67
2023/11/08 03:52:48;;;;;;;12.57;5.33;;;;;;;13.48;100.00;101522.03;2608860;22;20153;-67
2023/11/08 03:53:48;;;;;;;8.80;4.80;;;;;;;13.52;100.00;101519.19;2608959;22;20178;-68
2023/11/08 03:54:53;;;;;;;7.63;4.97;;;;;;;13.56;100.00;101519.88;2608953;22;20168;-67
2023/11/08 03:55:54;;;;;;;9.40;4.83;;;;;;;13.62;100.00;101510.59;2608913;22;20150;-68
2023/11/08 03:56:54;;;;;;;9.10;5.07;;;;;;;13.69;100.00;101512.44;2608929;22;20376;-67
2023/11/08 03:57:55;;;;;;;8.30;5.07;;;;;;;13.79;100.00;101503.81;2608959;22;20153;-67
2023/11/08 03:58:55;;;;;;;8.87;4.90;;;;;;;13.84;100.00;101502.53;2608884;22;20229;-68
2023/11/08 03:59:56;;;;;;;8.97;4.93;;;;;;;13.40;100.00;101439.09;2608980;22;20151;-67
2023/11/08 04:00:57;;;;;;;8.03;5.60;;;;;;;13.90;100.00;101498.00;2608925;22;20153;-67
2023/11/08 04:01:57;;;;;;;7.37;4.57;;;;;;;13.77;100.00;101472.03;2608966;22;20150;-67
2023/11/08 04:02:58;;;;;;;9.57;5.10;;;;;;;13.17;100.00;101380.75;2608984;22;20229;-67
2023/11/08 04:03:59;;;;;;;9.13;5.20;;;;;;;13.96;100.00;101487.91;2608876;22;20492;-68
2023/11/08 04:04:59;;;;;;;9.57;4.67;;;;;;;13.99;100.00;101501.75;2608904;22;20396;-68
2023/11/08 04:06:00;;;;;;;10.30;5.40;;;;;;;13.95;100.00;101495.50;2608953;22;20169;-68
2023/11/08 04:07:01;;;;;;;8.93;5.00;;;;;;;13.98;100.00;101502.22;2608922;22;20153;-67
2023/11/08 04:08:04;;;;;;;8.10;5.53;;;;;;;13.97;100.00;101486.69;2609109;22;20142;-67
2023/11/08 04:09:04;;;;;;;10.13;4.80;;;;;;;14.07;100.00;101491.22;2609033;22;20373;-67
2023/11/08 04:10:06;;;;;;;8.83;4.27;;;;;;;14.09;100.00;101492.34;2608937;22;20373;-68
2023/11/08 04:11:06;;;;;;;8.90;5.20;;;;;;;13.54;100.00;101408.94;2608930;22;20165;-68
2023/11/08 04:12:08;;;;;;;7.67;4.40;;;;;;;13.74;100.00;101445.81;2608874;22;20388;-67
2023/11/08 04:13:08;;;;;;;10.17;5.67;;;;;;;14.09;100.00;101494.38;2608993;22;20275;-67
2023/11/08 04:14:09;;;;;;;8.67;4.80;;;;;;;14.16;100.00;101494.19;2608901;22;20373;-68
2023/11/08 04:15:09;;;;;;;7.50;4.53;;;;;;;14.17;100.00;101506.91;2608966;22;20149;-68
2023/11/08 04:16:10;;;;;;;8.10;4.70;;;;;;;14.16;100.00;101500.56;2608833;22;20169;-67
2023/11/08 04:17:10;;;;;;;9.37;4.63;;;;;;;14.06;100.00;101489.66;2608841;22;20505;-69
2023/11/08 04:18:11;;;;;;;10.27;4.80;;;;;;;14.16;100.00;101499.75;2608862;22;20176;-68
2023/11/08 04:19:11;;;;;;;9.70;4.60;;;;;;;14.18;100.00;101500.09;2608677;22;20579;-67
2023/11/08 04:20:12;;;;;;;9.37;4.63;;;;;;;14.19;100.00;101504.47;2608418;22;20604;-68
2023/11/08 04:21:13;;;;;;;6.60;4.13;;;;;;;14.16;100.00;101508.91;2608911;22;20166;-68
2023/11/08 04:22:17;;;;;;;10.37;4.50;;;;;;;14.16;100.00;101503.34;2608795;22;20146;-67
2023/11/08 04:23:18;;;;;;;8.80;4.60;;;;;;;14.18;100.00;101502.88;2608869;22;20377;-67
2023/11/08 04:24:18;;;;;;;7.73;4.33;;;;;;;14.20;100.00;101501.25;2608703;22;20433;-67
2023/11/08 04:25:19;;;;;;;6.90;4.07;;;;;;;14.23;100.00;101499.59;2608681;22;20222;-68
2023/11/08 04:26:21;;;;;;;7.37;3.90;;;;;;;14.23;100.00;101496.81;2608728;22;20150;-68
2023/11/08 04:27:21;;;;;;;7.90;4.27;;;;;;;14.12;100.00;101476.75;2608851;22;20146;-67
2023/11/08 04:28:22;;;;;;;8.47;3.50;;;;;;;14.24;100.00;101492.84;2608805;22;20403;-67
2023/11/08 04:29:22;;;;;;;11.17;4.10;;;;;;;14.26;100.00;101495.97;2608866;22;20170;-68
2023/11/08 04:30:23;;;;;;;9.73;3.90;;;;;;;13.71;100.00;101406.91;2608883;22;20178;-67
2023/11/08 04:31:24;;;;;;;6.10;3.90;;;;;;;14.32;100.00;101491.41;2608844;22;20156;-68
2023/11/08 04:32:24;;;;;;;7.27;3.70;;;;;;;14.35;100.00;101493.34;2608837;22;20153;-68
2023/11/08 04:33:25;;;;;;;7.03;3.60;;;;;;;14.35;100.00;101490.56;2608795;22;20460;-67
2023/11/08 04:34:25;;;;;;;7.93;4.00;;;;;;;14.40;100.00;101484.44;2608808;22;20150;-67
2023/11/08 04:35:26;;;;;;;8.83;4.00;;;;;;;14.43;100.00;101491.94;2608824;22;20160;-68
2023/11/08 04:36:26;;;;;;;6.47;3.67;;;;;;;13.84;100.00;101394.63;2608642;22;20178;-68
2023/11/08 04:37:30;;;;;;;5.43;3.17;;;;;;;14.44;100.00;101493.50;2595182;22;20161;-68
2023/11/08 04:38:30;;;;;;;6.20;3.70;;;;;;;14.46;100.00;101486.28;2595835;22;20151;-68
2023/11/08 04:39:31;;;;;;;8.37;3.67;;;;;;;14.47;100.00;101481.47;2608738;22;20384;-67